createdAt,value
2018-08-22T00:01:28.311Z,2.00
2018-08-22T00:06:31.323Z,1.53
2018-08-22T00:11:34.343Z,1.93
2018-08-22T00:16:37.352Z,2.43
2018-08-22T00:21:40.375Z,1.63
2018-08-22T00:26:43.386Z,1.90
2018-08-22T00:31:46.440Z,1.67
2018-08-22T00:36:49.470Z,1.97
2018-08-22T00:41:52.496Z,1.43
2018-08-22T00:46:55.518Z,1.47
2018-08-22T00:51:58.534Z,1.87
2018-08-22T00:57:01.530Z,1.73
2018-08-22T01:02:04.664Z,1.57
2018-08-22T01:07:07.747Z,1.87
2018-08-22T01:12:10.747Z,1.50
2018-08-22T01:17:13.783Z,1.63
2018-08-22T01:22:16.855Z,3.37
2018-08-22T01:27:22.750Z,2.00
2018-08-22T01:32:25.610Z,1.50
2018-08-22T01:37:28.526Z,1.57
2018-08-22T01:42:31.627Z,1.80
2018-08-22T01:47:34.660Z,2.27
2018-08-22T01:52:37.743Z,1.70
2018-08-22T01:57:40.774Z,2.00
2018-08-22T02:02:43.899Z,2.10
2018-08-22T02:07:46.915Z,2.47
2018-08-22T02:12:49.955Z,2.10
2018-08-22T02:17:52.974Z,1.60
2018-08-22T02:22:56.015Z,1.90
2018-08-22T02:27:59.031Z,2.50
2018-08-22T02:33:02.123Z,1.93
2018-08-22T02:38:05.614Z,2.00
2018-08-22T02:43:08.664Z,2.23
2018-08-22T02:48:11.708Z,1.90
2018-08-22T02:53:14.745Z,2.20
2018-08-22T02:58:17.800Z,2.40
2018-08-22T03:03:20.821Z,1.57
2018-08-22T03:08:24.144Z,1.87
2018-08-22T03:13:27.337Z,1.83
2018-08-22T03:18:30.519Z,2.50
2018-08-22T03:23:33.542Z,2.50
2018-08-22T03:28:36.631Z,2.70
2018-08-22T03:33:40.748Z,2.33
2018-08-22T03:38:43.871Z,2.23
2018-08-22T03:43:46.959Z,2.23
2018-08-22T03:48:49.986Z,2.20
2018-08-22T03:53:52.993Z,2.30
2018-08-22T03:58:56.005Z,2.10
2018-08-22T04:03:59.045Z,2.40
2018-08-22T04:09:02.083Z,2.43
2018-08-22T04:14:05.132Z,2.40
2018-08-22T04:19:08.157Z,2.40
2018-08-22T04:24:11.212Z,2.73
2018-08-22T04:29:14.237Z,3.47
2018-08-22T04:34:17.293Z,2.37
2018-08-22T04:39:20.341Z,2.67
2018-08-22T04:44:23.380Z,3.33
2018-08-22T04:49:26.565Z,3.23
2018-08-22T04:54:29.631Z,2.67
2018-08-22T04:59:32.736Z,3.23
2018-08-22T05:04:35.768Z,2.70
2018-08-22T05:09:38.792Z,2.47
2018-08-22T05:14:41.836Z,2.53
2018-08-22T05:19:44.875Z,3.70
2018-08-22T05:24:47.938Z,2.80
2018-08-22T05:29:50.940Z,2.90
2018-08-22T05:34:53.958Z,3.10
2018-08-22T05:39:56.962Z,3.00
2018-08-22T05:45:00.062Z,2.57
2018-08-22T05:50:03.072Z,2.20
2018-08-22T05:55:06.098Z,2.80
2018-08-22T06:00:09.132Z,3.33
2018-08-22T06:05:12.152Z,3.40
2018-08-22T06:10:15.188Z,3.00
2018-08-22T06:15:18.231Z,2.80
2018-08-22T06:20:21.285Z,3.00
2018-08-22T06:25:24.378Z,2.80
2018-08-22T06:30:27.397Z,4.57
2018-08-22T06:35:30.435Z,2.70
2018-08-22T06:40:33.853Z,2.17
2018-08-22T06:45:37.112Z,3.30
2018-08-22T06:50:40.316Z,3.13
2018-08-22T06:55:43.355Z,2.37
2018-08-22T07:00:46.448Z,2.70
2018-08-22T07:05:49.535Z,2.60
2018-08-22T07:10:52.577Z,2.67
2018-08-22T07:15:55.689Z,2.97
2018-08-22T07:20:58.823Z,2.47
2018-08-22T07:26:01.828Z,3.10
2018-08-22T07:31:04.897Z,2.60
2018-08-22T07:36:08.061Z,2.73
2018-08-22T07:41:12.282Z,2.10
2018-08-22T07:46:15.492Z,2.70
2018-08-22T07:51:18.606Z,3.07
2018-08-22T07:56:22.385Z,2.27
2018-08-22T08:01:25.601Z,2.30
2018-08-22T08:06:28.617Z,1.97
2018-08-22T08:11:31.511Z,1.97
2018-08-22T08:16:35.405Z,1.77
2018-08-22T08:21:38.592Z,2.50
2018-08-22T08:26:41.968Z,2.00
2018-08-22T08:31:44.983Z,1.80
2018-08-22T08:36:47.989Z,1.97
2018-08-22T08:41:51.079Z,1.70
2018-08-22T08:46:54.109Z,1.87
2018-08-22T08:51:58.822Z,1.93
2018-08-22T08:57:01.835Z,2.40
2018-08-22T09:02:04.941Z,1.50
2018-08-22T09:07:07.964Z,1.70
2018-08-22T09:12:11.027Z,1.77
2018-08-22T09:17:14.947Z,1.30
2018-08-22T09:22:17.968Z,1.37
2018-08-22T09:27:20.984Z,1.50
2018-08-22T09:32:24.087Z,1.83
2018-08-22T09:37:27.090Z,1.40
2018-08-22T09:42:30.114Z,1.47
2018-08-22T09:47:33.658Z,1.37
2018-08-22T09:52:36.696Z,1.10
2018-08-22T09:57:39.726Z,1.10
2018-08-22T10:02:42.859Z,1.60
2018-08-22T10:07:46.011Z,1.27
2018-08-22T10:12:49.052Z,1.70
2018-08-22T10:17:52.089Z,1.60
2018-08-22T10:22:55.095Z,2.90
2018-08-22T10:27:58.178Z,1.40
2018-08-22T10:33:01.187Z,1.47
2018-08-22T10:38:04.208Z,2.07
2018-08-22T10:43:07.299Z,2.50
2018-08-22T10:48:10.345Z,2.50
2018-08-22T10:53:13.442Z,1.47
2018-08-22T10:58:16.472Z,1.10
2018-08-22T11:03:19.492Z,1.43
2018-08-22T11:08:22.510Z,1.17
2018-08-22T11:13:25.519Z,1.20
2018-08-22T11:18:28.552Z,1.10
2018-08-22T11:23:43.127Z,1.10
2018-08-22T11:28:57.523Z,2.07
2018-08-22T11:34:12.352Z,1.20
2018-08-22T11:39:15.366Z,1.10
2018-08-22T11:44:18.375Z,1.23
2018-08-22T11:49:21.547Z,1.00
2018-08-22T11:54:24.549Z,1.10
2018-08-22T11:59:27.602Z,1.00
2018-08-22T12:04:30.632Z,1.13
2018-08-22T12:09:33.707Z,1.30
2018-08-22T12:14:36.757Z,1.53
2018-08-22T12:19:39.791Z,1.20
2018-08-22T12:24:42.926Z,1.13
2018-08-22T12:29:46.013Z,1.10
2018-08-22T12:34:49.048Z,1.10
2018-08-22T12:39:52.057Z,1.27
2018-08-22T12:44:55.095Z,1.20
2018-08-22T12:49:58.105Z,1.50
2018-08-22T12:55:01.194Z,1.70
2018-08-22T13:00:04.523Z,1.30
2018-08-22T13:05:07.640Z,1.70
2018-08-22T13:10:10.795Z,1.43
2018-08-22T13:15:13.818Z,1.40
2018-08-22T13:20:16.853Z,1.50
2018-08-22T13:25:19.968Z,1.80
2018-08-22T13:30:23.047Z,1.70
2018-08-22T13:35:26.103Z,1.20
2018-08-22T13:40:29.183Z,1.23
2018-08-22T13:45:32.200Z,1.30
2018-08-22T13:50:35.207Z,2.90
2018-08-22T13:55:38.229Z,3.13
2018-08-22T14:00:41.242Z,1.53
2018-08-22T14:05:44.301Z,1.50
2018-08-22T14:10:47.350Z,1.63
2018-08-22T14:15:50.403Z,1.50
2018-08-22T14:20:53.444Z,1.47
2018-08-22T14:25:56.568Z,1.33
2018-08-22T14:30:59.749Z,1.40
2018-08-22T14:36:02.882Z,1.10
2018-08-22T14:41:06.277Z,1.40
2018-08-22T14:46:09.556Z,1.40
2018-08-22T14:51:12.634Z,1.23
2018-08-22T14:56:15.916Z,1.33
2018-08-22T15:01:19.027Z,1.40
2018-08-22T15:06:22.155Z,1.43
2018-08-22T15:11:25.405Z,1.40
2018-08-22T15:16:28.569Z,1.20
2018-08-22T15:21:31.591Z,1.37
2018-08-22T15:26:34.785Z,1.30
2018-08-22T15:31:38.399Z,1.33
2018-08-22T15:36:41.474Z,1.30
2018-08-22T15:41:44.513Z,1.47
2018-08-22T15:46:47.537Z,1.60
2018-08-22T15:51:50.568Z,2.20
2018-08-22T15:56:57.871Z,1.20
2018-08-22T16:02:00.893Z,1.47
2018-08-22T16:07:07.937Z,1.30
2018-08-22T16:12:11.031Z,1.17
2018-08-22T16:17:14.205Z,1.50
2018-08-22T16:22:17.254Z,1.20
2018-08-22T16:27:20.284Z,1.40
2018-08-22T16:32:23.676Z,1.47
2018-08-22T16:37:26.773Z,1.53
2018-08-22T16:42:38.288Z,1.40
2018-08-22T16:47:41.318Z,1.60
2018-08-22T16:52:44.335Z,1.70
2018-08-22T16:57:48.342Z,1.40
2018-08-22T17:02:51.383Z,1.43
2018-08-22T17:07:54.432Z,1.50
2018-08-22T17:12:57.547Z,1.60
2018-08-22T17:18:00.572Z,1.83
2018-08-22T17:23:03.660Z,2.20
2018-08-22T17:28:06.681Z,1.60
2018-08-22T17:33:11.292Z,1.80
2018-08-22T17:38:14.419Z,1.80
2018-08-22T17:43:17.430Z,2.40
2018-08-22T17:48:21.883Z,2.40
2018-08-22T17:53:25.013Z,2.50
2018-08-22T17:58:28.043Z,2.87
2018-08-22T18:03:32.070Z,3.10
2018-08-22T18:08:35.150Z,2.37
2018-08-22T18:13:38.251Z,2.00
2018-08-22T18:18:41.369Z,1.97
2018-08-22T18:23:48.653Z,2.10
2018-08-22T18:28:51.699Z,2.80
2018-08-22T18:33:58.726Z,2.10
2018-08-22T18:39:06.292Z,2.57
2018-08-22T18:44:09.308Z,1.97
2018-08-22T18:49:12.380Z,1.63
2018-08-22T18:54:15.459Z,5.07
2018-08-22T18:59:24.845Z,2.60
2018-08-22T19:04:27.950Z,3.00
2018-08-22T19:09:31.028Z,2.70
2018-08-22T19:14:41.859Z,2.80
2018-08-22T19:19:46.178Z,2.90
2018-08-22T19:25:03.823Z,2.50
2018-08-22T19:30:07.215Z,2.50
2018-08-22T19:35:10.251Z,3.10
2018-08-22T19:40:13.272Z,2.80
2018-08-22T19:45:16.334Z,3.10
2018-08-22T19:50:19.542Z,2.67
2018-08-22T19:55:22.589Z,3.30
2018-08-22T20:00:25.595Z,2.60
2018-08-22T20:05:49.402Z,2.87
2018-08-22T20:10:52.416Z,3.57
2018-08-22T20:15:55.539Z,3.50
2018-08-22T20:20:58.648Z,3.30
2018-08-22T20:26:01.877Z,3.77
2018-08-22T20:31:09.325Z,3.30
2018-08-22T20:36:12.550Z,3.37
2018-08-22T20:41:16.646Z,3.90
2018-08-22T20:46:19.873Z,3.23
2018-08-22T20:51:22.947Z,3.50
2018-08-22T20:56:26.871Z,3.77
2018-08-22T21:01:29.900Z,3.87
2018-08-22T21:06:33.017Z,3.80
2018-08-22T21:11:38.184Z,3.63
2018-08-22T21:16:41.208Z,3.77
2018-08-22T21:21:44.304Z,3.53
2018-08-22T21:26:47.429Z,4.10
2018-08-22T21:31:50.470Z,3.97
2018-08-22T21:36:53.594Z,3.87
2018-08-22T21:41:56.791Z,3.50
2018-08-22T21:47:05.156Z,3.73
2018-08-22T21:52:08.197Z,3.53
2018-08-22T21:57:11.179Z,4.30
2018-08-22T22:02:14.188Z,3.63
2018-08-22T22:07:17.275Z,4.07
2018-08-22T22:12:25.778Z,3.63
2018-08-22T22:17:28.806Z,3.70
2018-08-22T22:22:31.820Z,3.60
2018-08-22T22:27:34.829Z,3.60
2018-08-22T22:32:37.832Z,3.27
2018-08-22T22:37:40.855Z,3.67
2018-08-22T22:42:43.875Z,3.90
2018-08-22T22:47:46.917Z,3.97
2018-08-22T22:52:50.078Z,3.97
2018-08-22T22:57:53.116Z,4.07
2018-08-22T23:03:08.744Z,3.50
2018-08-22T23:08:11.755Z,4.17
2018-08-22T23:13:14.785Z,3.93
2018-08-22T23:18:17.825Z,3.60
2018-08-22T23:23:31.882Z,3.40
2018-08-22T23:28:34.949Z,3.70
2018-08-22T23:33:38.108Z,3.40
2018-08-22T23:38:41.138Z,3.43
2018-08-22T23:43:49.697Z,3.17
2018-08-22T23:48:55.040Z,3.20
2018-08-22T23:53:59.442Z,3.40
2018-08-22T23:59:02.531Z,3.63
